Time;durP1;ratioP1;P1;durP2;ratioP2;P2;SDS_P1;SDS_P2;PMS_P1;PMS_P2;Temp;Humidity;BMP_temperature;BMP_pressure;BME280_temperature;BME280_humidity;BME280_pressure;Samples;Min_cycle;Max_cycle;Signal;HPM_P1;HPM_P2
2022/05/19 00:00:26;;;;;;;4.90;3.17;;;22.10;99.90;;;;;;5054705;28;20575;-49
2022/05/19 00:02:52;;;;;;;6.95;3.55;;;22.10;99.90;;;;;;5054732;28;20162;-48
2022/05/19 00:05:17;;;;;;;5.03;3.30;;;22.00;99.90;;;;;;5054683;28;20258;-48
2022/05/19 00:07:43;;;;;;;6.43;3.42;;;22.00;99.90;;;;;;5054442;28;20206;-49
2022/05/19 00:10:09;;;;;;;4.25;3.00;;;21.90;99.90;;;;;;5054563;28;20175;-49
2022/05/19 00:12:35;;;;;;;4.45;3.10;;;22.00;99.90;;;;;;5053123;28;20616;-49
2022/05/19 00:15:01;;;;;;;7.90;3.40;;;21.90;99.90;;;;;;5054570;28;20273;-49
2022/05/19 00:17:26;;;;;;;11.90;3.47;;;21.80;99.90;;;;;;5054244;28;20249;-49
2022/05/19 00:19:52;;;;;;;4.05;3.53;;;21.70;99.90;;;;;;5054245;28;20163;-48
2022/05/19 00:22:18;;;;;;;4.38;3.20;;;21.70;99.90;;;;;;5054490;28;20197;-48
2022/05/19 00:24:43;;;;;;;7.60;3.70;;;21.70;99.90;;;;;;5054451;28;20167;-49
2022/05/19 00:27:09;;;;;;;4.75;3.33;;;21.70;99.90;;;;;;5054099;28;20209;-49
2022/05/19 00:29:34;;;;;;;5.70;2.92;;;21.70;99.90;;;;;;5054071;28;20163;-48
2022/05/19 00:32:00;;;;;;;5.93;3.50;;;21.70;99.90;;;;;;5054014;28;20633;-48
2022/05/19 00:34:26;;;;;;;6.35;3.28;;;21.70;99.90;;;;;;5052659;28;20658;-48
2022/05/19 00:37:02;;;;;;;7.07;3.30;;;21.70;99.90;;;;;;5054041;28;20210;-49
2022/05/19 00:39:28;;;;;;;5.95;3.35;;;21.60;99.90;;;;;;5053925;28;20523;-49
2022/05/19 00:44:41;;;;;;;4.13;3.00;;;21.50;99.90;;;;;;5053986;28;20258;-49
2022/05/19 00:47:11;;;;;;;3.97;3.33;;;21.50;99.90;;;;;;5053780;28;20190;-48
2022/05/19 00:49:42;;;;;;;5.10;3.38;;;21.40;99.90;;;;;;5054095;28;20166;-48
2022/05/19 00:52:20;;;;;;;3.80;3.17;;;21.50;99.90;;;;;;5053807;28;20163;-50
2022/05/19 00:54:54;;;;;;;6.22;3.78;;;21.50;99.90;;;;;;5053640;28;20194;-50
2022/05/19 00:57:24;;;;;;;4.80;3.38;;;21.50;99.90;;;;;;5053740;28;20238;-49
2022/05/19 00:59:56;;;;;;;4.00;3.10;;;21.40;99.90;;;;;;5053861;28;20166;-48
2022/05/19 01:02:27;;;;;;;7.20;3.47;;;21.30;99.90;;;;;;5053691;28;20175;-49
2022/05/19 01:05:04;;;;;;;5.35;3.28;;;21.10;99.90;;;;;;5053306;28;20210;-49
2022/05/19 01:07:35;;;;;;;5.20;3.55;;;21.20;99.90;;;;;;5053307;28;20159;-48
2022/05/19 01:10:04;;;;;;;4.30;3.67;;;21.10;99.90;;;;;;5053327;28;20167;-50
2022/05/19 01:12:29;;;;;;;5.60;3.05;;;21.10;99.90;;;;;;5053508;28;20625;-50
2022/05/19 01:14:55;;;;;;;6.93;3.42;;;21.20;99.90;;;;;;5053196;28;20194;-48
2022/05/19 01:17:22;;;;;;;5.97;3.35;;;21.20;99.90;;;;;;5053038;28;20210;-48
2022/05/19 01:19:57;;;;;;;4.38;3.20;;;21.10;99.90;;;;;;5053424;28;20162;-49
2022/05/19 01:22:32;;;;;;;5.03;3.17;;;21.10;99.90;;;;;;5052956;28;20170;-48
2022/05/19 01:25:18;;;;;;;5.40;3.47;;;21.00;99.90;;;;;;5053027;28;20162;-49
2022/05/19 01:27:43;;;;;;;7.30;3.50;;;21.00;99.90;;;;;;5049067;28;20217;-49
2022/05/19 01:30:11;;;;;;;3.97;3.28;;;21.00;99.90;;;;;;5051590;28;20170;-49
2022/05/19 01:32:36;;;;;;;7.63;4.20;;;21.00;99.90;;;;;;5052771;28;20190;-49
2022/05/19 01:35:02;;;;;;;10.07;4.07;;;21.00;99.90;;;;;;5053089;28;20185;-49
2022/05/19 01:37:28;;;;;;;4.25;2.83;;;21.00;99.90;;;;;;5052713;28;20198;-49
2022/05/19 01:40:02;;;;;;;5.22;3.60;;;21.00;99.90;;;;;;5052817;28;20174;-49
2022/05/19 01:42:39;;;;;;;6.50;3.60;;;20.90;99.90;;;;;;5052688;28;20216;-49
2022/05/19 01:45:27;;;;;;;6.47;3.50;;;20.80;99.90;;;;;;5052334;28;20171;-48
2022/05/19 01:48:02;;;;;;;3.90;3.17;;;20.70;99.90;;;;;;5052782;28;20171;-50
2022/05/19 01:50:44;;;;;;;4.03;3.55;;;20.60;99.90;;;;;;5052524;28;20166;-48
2022/05/19 01:53:20;;;;;;;10.15;3.53;;;20.60;99.90;;;;;;5052738;28;20167;-47
2022/05/19 01:55:55;;;;;;;4.72;3.10;;;20.60;99.90;;;;;;5052408;28;20170;-48
2022/05/19 01:58:35;;;;;;;6.53;3.65;;;20.50;99.90;;;;;;5052316;28;20190;-47
2022/05/19 02:01:04;;;;;;;5.13;3.20;;;20.50;99.90;;;;;;5052474;28;20624;-48
2022/05/19 02:03:56;;;;;;;5.43;3.47;;;20.50;99.90;;;;;;5052546;28;20261;-49
2022/05/19 02:06:43;;;;;;;5.35;2.97;;;20.60;99.90;;;;;;5052199;28;20205;-49
2022/05/19 02:09:18;;;;;;;5.03;3.45;;;20.60;99.90;;;;;;5052201;28;20538;-48
2022/05/19 02:11:56;;;;;;;6.47;3.63;;;20.60;99.90;;;;;;5052228;28;20177;-49
2022/05/19 02:14:28;;;;;;;4.80;3.40;;;20.60;99.90;;;;;;5052151;28;20258;-48
2022/05/19 02:16:55;;;;;;;6.47;3.60;;;20.50;99.90;;;;;;5052309;28;20238;-48
2022/05/19 02:19:26;;;;;;;4.57;2.95;;;20.50;99.90;;;;;;5052359;28;20590;-49
2022/05/19 02:21:52;;;;;;;5.53;3.45;;;20.50;99.90;;;;;;5052001;28;20162;-48
2022/05/19 02:24:22;;;;;;;5.30;3.58;;;20.50;99.90;;;;;;5052320;28;20162;-48
2022/05/19 02:26:48;;;;;;;4.47;3.17;;;20.50;99.90;;;;;;5052389;28;20257;-49
2022/05/19 02:29:19;;;;;;;5.55;3.88;;;20.50;99.90;;;;;;5051962;28;20206;-48
2022/05/19 02:31:46;;;;;;;7.25;3.80;;;20.50;99.90;;;;;;5051883;28;20249;-49
2022/05/19 02:34:11;;;;;;;4.78;3.33;;;20.40;99.90;;;;;;5051930;28;20171;-49
2022/05/19 02:36:38;;;;;;;4.50;3.47;;;20.50;99.90;;;;;;5051832;28;20190;-48
2022/05/19 02:39:04;;;;;;;3.88;3.40;;;20.50;99.90;;;;;;5051797;28;20253;-49
2022/05/19 02:41:29;;;;;;;4.22;3.58;;;20.50;99.90;;;;;;5051853;28;20240;-49
2022/05/19 02:43:54;;;;;;;4.10;3.60;;;20.40;99.90;;;;;;5051874;28;20627;-49
2022/05/19 02:46:20;;;;;;;6.82;3.40;;;20.40;99.90;;;;;;5052169;28;20212;-49
2022/05/19 02:48:45;;;;;;;6.25;3.72;;;20.40;99.90;;;;;;5051787;28;20249;-48
2022/05/19 02:51:11;;;;;;;5.30;3.80;;;20.40;99.90;;;;;;5051738;28;20167;-48
2022/05/19 02:53:37;;;;;;;6.30;3.90;;;20.40;99.90;;;;;;5051728;28;20175;-47
2022/05/19 02:56:02;;;;;;;8.98;3.72;;;20.50;99.90;;;;;;5051635;28;20174;-48
2022/05/19 02:58:28;;;;;;;4.53;3.55;;;20.40;99.90;;;;;;5054588;28;20228;-49
2022/05/19 03:00:54;;;;;;;5.15;3.45;;;20.40;99.90;;;;;;5055829;28;20170;-48
2022/05/19 03:03:20;;;;;;;5.25;3.53;;;20.40;99.90;;;;;;5055937;28;20175;-48
2022/05/19 03:05:45;;;;;;;5.15;3.70;;;20.30;99.90;;;;;;5055458;28;20237;-49
2022/05/19 03:08:11;;;;;;;6.15;3.83;;;20.40;99.90;;;;;;5055845;28;20636;-48
2022/05/19 03:10:39;;;;;;;5.80;3.75;;;20.40;99.90;;;;;;5055818;28;20664;-49
2022/05/19 03:13:05;;;;;;;6.20;3.80;;;20.30;99.90;;;;;;5055502;28;20632;-48
2022/05/19 03:15:32;;;;;;;6.75;3.45;;;20.30;99.90;;;;;;5055498;28;20205;-48
2022/05/19 03:17:57;;;;;;;5.68;3.45;;;20.30;99.90;;;;;;5055601;28;20217;-49
2022/05/19 03:20:23;;;;;;;4.97;3.50;;;20.20;99.90;;;;;;5055491;28;20166;-49
2022/05/19 03:22:49;;;;;;;7.07;3.63;;;20.30;99.90;;;;;;5055580;28;20166;-48
2022/05/19 03:25:15;;;;;;;5.20;3.67;;;20.30;99.90;;;;;;5055742;28;20502;-48
2022/05/19 03:27:41;;;;;;;4.35;3.75;;;20.30;99.90;;;;;;5055184;28;20173;-48
2022/05/19 03:30:11;;;;;;;6.38;3.83;;;20.30;99.90;;;;;;5055202;28;20249;-48
2022/05/19 03:32:36;;;;;;;6.45;3.92;;;20.30;99.90;;;;;;5055334;28;20591;-49
2022/05/19 03:35:02;;;;;;;5.00;3.55;;;20.20;99.90;;;;;;5055107;28;20163;-48
2022/05/19 03:37:28;;;;;;;9.38;4.25;;;20.30;99.90;;;;;;5055256;28;20206;-48
2022/05/19 03:39:53;;;;;;;5.60;3.80;;;20.20;99.90;;;;;;5055023;28;20195;-49
2022/05/19 03:42:19;;;;;;;5.80;3.92;;;20.20;99.90;;;;;;5055359;28;20174;-48
2022/05/19 03:44:44;;;;;;;7.53;4.18;;;20.20;99.90;;;;;;5054864;28;20179;-48
2022/05/19 03:47:10;;;;;;;4.95;3.60;;;20.20;99.90;;;;;;5054987;28;20178;-49
2022/05/19 03:49:35;;;;;;;7.45;4.10;;;20.20;99.90;;;;;;5055145;28;20166;-49
2022/05/19 03:52:01;;;;;;;4.13;3.55;;;20.20;99.90;;;;;;5054704;28;20636;-48
2022/05/19 03:54:27;;;;;;;4.45;3.85;;;20.10;99.90;;;;;;5054948;28;20245;-49
2022/05/19 03:56:53;;;;;;;7.15;4.00;;;20.10;99.90;;;;;;5054658;28;20293;-48
2022/05/19 03:59:18;;;;;;;7.30;3.85;;;20.10;99.90;;;;;;5054925;28;20171;-49
2022/05/19 04:01:45;;;;;;;5.50;3.30;;;20.10;99.90;;;;;;5054853;28;20178;-48
2022/05/19 04:04:10;;;;;;;7.90;4.32;;;20.10;99.90;;;;;;5054389;28;20213;-49
2022/05/19 04:06:36;;;;;;;7.32;4.07;;;20.10;99.90;;;;;;5054555;28;20261;-50
2022/05/19 04:09:03;;;;;;;8.40;3.88;;;20.10;99.90;;;;;;5054135;28;20159;-49
2022/05/19 04:11:29;;;;;;;6.95;3.75;;;20.10;99.90;;;;;;5053948;28;20316;-49
2022/05/19 04:13:55;;;;;;;5.88;3.58;;;20.10;99.90;;;;;;5054058;28;20620;-50
2022/05/19 04:16:21;;;;;;;7.88;3.85;;;20.10;99.90;;;;;;5054214;28;20687;-48
2022/05/19 04:18:47;;;;;;;4.32;3.92;;;20.10;99.90;;;;;;5054573;28;20183;-49
2022/05/19 04:21:12;;;;;;;4.85;3.92;;;20.10;99.90;;;;;;5054251;28;20167;-49
2022/05/19 04:23:38;;;;;;;8.98;4.05;;;20.10;99.90;;;;;;5054203;28;20162;-47
2022/05/19 04:26:04;;;;;;;6.75;3.80;;;20.20;99.90;;;;;;5054371;28;20178;-50
2022/05/19 04:28:30;;;;;;;4.30;3.70;;;20.30;99.90;;;;;;5054158;28;20171;-48
2022/05/19 04:30:56;;;;;;;4.60;3.75;;;20.30;99.90;;;;;;5054056;28;20171;-49
2022/05/19 04:33:21;;;;;;;4.38;3.60;;;20.40;99.90;;;;;;5053935;28;20194;-48
2022/05/19 04:35:47;;;;;;;8.27;3.67;;;20.40;99.90;;;;;;5054269;28;20201;-47
2022/05/19 04:38:15;;;;;;;8.13;3.83;;;20.40;99.90;;;;;;5054086;28;20544;-48
2022/05/19 04:40:47;;;;;;;6.97;3.97;;;20.50;99.90;;;;;;5054195;28;20300;-48
2022/05/19 04:43:14;;;;;;;7.00;3.92;;;20.60;99.90;;;;;;5052567;28;20163;-49
2022/05/19 04:45:40;;;;;;;6.38;3.85;;;20.60;99.90;;;;;;5053706;28;20178;-48
2022/05/19 04:48:06;;;;;;;9.50;4.10;;;20.60;99.90;;;;;;5054087;28;20173;-49
2022/05/19 04:50:31;;;;;;;8.88;3.88;;;20.60;99.90;;;;;;5053689;28;20177;-49
2022/05/19 04:52:58;;;;;;;5.43;3.80;;;20.60;99.90;;;;;;5053565;28;20253;-49
2022/05/19 04:55:27;;;;;;;8.30;3.80;;;20.60;99.90;;;;;;5053467;28;20659;-48
2022/05/19 04:57:53;;;;;;;4.57;4.13;;;20.70;99.90;;;;;;5053333;28;20207;-49
2022/05/19 05:00:19;;;;;;;4.80;3.47;;;20.80;99.90;;;;;;5053737;28;20167;-49
2022/05/19 05:02:45;;;;;;;6.45;4.07;;;20.80;99.90;;;;;;5053281;28;20229;-49
2022/05/19 05:05:11;;;;;;;6.35;3.40;;;20.70;99.90;;;;;;5053102;28;20214;-48
2022/05/19 05:07:36;;;;;;;7.82;3.90;;;20.80;99.90;;;;;;5053418;28;20178;-49
2022/05/19 05:10:03;;;;;;;6.72;4.20;;;20.90;99.90;;;;;;5053529;28;20586;-49
2022/05/19 05:12:29;;;;;;;8.80;4.57;;;20.90;99.90;;;;;;5053214;28;20174;-49
2022/05/19 05:14:54;;;;;;;8.82;4.10;;;21.00;99.90;;;;;;5053463;28;20163;-48
2022/05/19 05:17:21;;;;;;;4.90;3.60;;;21.00;99.90;;;;;;5053381;28;20214;-48
2022/05/19 05:19:47;;;;;;;11.00;4.20;;;21.90;99.90;;;;;;5052716;28;20167;-49
2022/05/19 05:22:14;;;;;;;5.45;3.63;;;21.20;99.90;;;;;;5052937;28;20201;-49
2022/05/19 05:24:40;;;;;;;6.20;3.85;;;21.30;99.90;;;;;;5053013;28;20166;-50
2022/05/19 05:27:06;;;;;;;6.30;3.60;;;21.50;99.90;;;;;;5052945;28;20179;-50
2022/05/19 05:29:32;;;;;;;7.30;4.28;;;21.40;99.90;;;;;;5053447;28;20177;-50
2022/05/19 05:31:58;;;;;;;9.27;4.30;;;21.10;99.90;;;;;;5052903;28;20163;-50
2022/05/19 05:34:24;;;;;;;16.70;4.50;;;21.10;99.90;;;;;;5052745;28;20170;-49
2022/05/19 05:36:50;;;;;;;9.98;5.07;;;21.00;99.90;;;;;;5051579;28;20206;-50
2022/05/19 05:39:15;;;;;;;9.90;4.90;;;21.20;99.90;;;;;;5051509;28;20583;-45
2022/05/19 05:41:41;;;;;;;6.47;4.28;;;21.10;99.90;;;;;;5051373;28;20202;-49
2022/05/19 05:44:06;;;;;;;9.10;4.78;;;21.00;99.90;;;;;;5051388;28;20254;-47
2022/05/19 05:46:32;;;;;;;10.20;4.53;;;21.00;99.90;;;;;;5051188;28;20249;-47
2022/05/19 05:48:58;;;;;;;6.82;4.55;;;21.20;99.90;;;;;;5051161;28;20171;-53
2022/05/19 05:51:23;;;;;;;8.95;4.80;;;21.30;99.90;;;;;;5051262;28;20608;-54
2022/05/19 05:53:49;;;;;;;7.78;4.57;;;21.40;99.90;;;;;;5051310;28;20171;-47
2022/05/19 05:56:18;;;;;;;12.70;4.93;;;21.50;99.90;;;;;;5050944;28;20205;-50
2022/05/19 05:58:44;;;;;;;6.65;4.25;;;21.50;99.90;;;;;;5051062;28;20182;-52
2022/05/19 06:01:11;;;;;;;8.90;4.70;;;21.60;99.90;;;;;;5051237;28;20180;-52
2022/05/19 06:03:37;;;;;;;9.65;4.07;;;21.80;99.90;;;;;;5051206;28;20677;-50
2022/05/19 06:06:04;;;;;;;10.88;4.40;;;22.00;99.90;;;;;;5050606;28;20222;-50
2022/05/19 06:08:30;;;;;;;6.20;3.83;;;22.10;99.90;;;;;;5052247;28;20178;-48
2022/05/19 06:10:56;;;;;;;8.63;4.65;;;22.20;99.90;;;;;;5052236;28;20194;-47
2022/05/19 06:13:23;;;;;;;8.52;4.13;;;22.30;99.90;;;;;;5052247;28;20636;-47
2022/05/19 06:15:48;;;;;;;11.68;4.18;;;22.40;99.90;;;;;;5052687;28;20174;-47
2022/05/19 06:18:14;;;;;;;12.80;4.15;;;22.70;99.90;;;;;;5051965;28;20732;-48
2022/05/19 06:20:40;;;;;;;10.48;3.80;;;22.90;99.90;;;;;;5052048;28;20170;-48
2022/05/19 06:23:07;;;;;;;10.02;3.80;;;23.00;99.90;;;;;;5052253;28;20170;-48
2022/05/19 06:25:33;;;;;;;17.13;4.50;;;23.20;99.90;;;;;;5051953;28;20174;-48
2022/05/19 06:28:00;;;;;;;6.00;3.80;;;23.30;99.90;;;;;;5052196;28;20171;-48
2022/05/19 06:30:28;;;;;;;9.75;4.32;;;23.40;99.90;;;;;;5052057;28;20242;-48
2022/05/19 06:32:54;;;;;;;8.48;4.55;;;23.40;99.90;;;;;;5051705;28;20245;-47
2022/05/19 06:35:23;;;;;;;6.63;3.78;;;23.50;99.90;;;;;;5052266;28;20262;-48
2022/05/19 06:37:49;;;;;;;7.57;4.10;;;23.40;99.90;;;;;;5052285;28;20222;-47
2022/05/19 06:40:15;;;;;;;8.25;4.47;;;23.50;99.90;;;;;;5050767;28;20171;-48
2022/05/19 06:42:42;;;;;;;7.95;3.95;;;23.50;99.90;;;;;;5052027;28;20206;-49
2022/05/19 06:45:08;;;;;;;6.50;3.75;;;23.50;99.90;;;;;;5051829;28;20184;-47
2022/05/19 06:47:35;;;;;;;10.55;4.00;;;23.70;99.90;;;;;;5052053;28;20601;-48
2022/05/19 06:50:00;;;;;;;9.65;4.45;;;23.60;99.90;;;;;;5052005;28;20171;-48
2022/05/19 06:52:30;;;;;;;8.88;4.38;;;23.50;99.90;;;;;;5051756;28;20182;-47
2022/05/19 06:54:58;;;;;;;8.65;4.18;;;23.50;99.90;;;;;;5051875;28;20159;-48
2022/05/19 06:57:26;;;;;;;5.85;3.92;;;23.70;99.90;;;;;;5051511;28;20210;-48
2022/05/19 06:59:52;;;;;;;7.15;3.75;;;23.70;99.90;;;;;;5051566;28;20178;-47
2022/05/19 07:02:21;;;;;;;5.53;3.70;;;23.70;99.90;;;;;;5051967;28;20210;-48
2022/05/19 07:04:46;;;;;;;11.65;4.30;;;23.70;99.90;;;;;;5051901;28;20218;-47
2022/05/19 07:07:12;;;;;;;11.43;4.00;;;23.80;99.90;;;;;;5051655;28;20189;-47
2022/05/19 07:09:39;;;;;;;7.15;3.97;;;23.90;99.90;;;;;;5051813;28;20625;-47
2022/05/19 07:12:07;;;;;;;8.23;4.40;;;24.30;99.90;;;;;;5051563;28;20541;-47
2022/05/19 07:14:33;;;;;;;7.53;4.45;;;24.60;99.90;;;;;;5051574;28;20163;-47
2022/05/19 07:16:59;;;;;;;8.82;4.50;;;24.70;99.90;;;;;;5051382;28;20745;-47
2022/05/19 07:22:19;;;;;;;9.85;4.05;;;24.60;99.90;;;;;;5050791;28;20231;-48
2022/05/19 07:24:46;;;;;;;9.10;4.43;;;24.70;99.90;;;;;;5051405;28;20670;-48
2022/05/19 07:27:12;;;;;;;7.72;3.78;;;24.90;99.90;;;;;;5051370;28;20166;-48
2022/05/19 07:29:38;;;;;;;6.03;4.07;;;24.80;99.90;;;;;;5051351;28;20182;-47
2022/05/19 07:32:04;;;;;;;6.70;4.28;;;24.70;99.90;;;;;;5051384;28;20206;-48
2022/05/19 07:34:31;;;;;;;17.48;4.00;;;24.60;99.90;;;;;;5051605;28;20178;-48
2022/05/19 07:36:58;;;;;;;7.63;4.03;;;24.40;99.90;;;;;;5051313;28;20253;-49
2022/05/19 07:39:27;;;;;;;9.65;4.10;;;24.40;99.90;;;;;;5051307;28;20167;-49
2022/05/19 07:41:55;;;;;;;11.77;3.92;;;24.60;99.90;;;;;;5051303;28;20624;-49
2022/05/19 07:44:21;;;;;;;10.90;4.47;;;24.70;99.90;;;;;;5054177;28;20545;-48
2022/05/19 07:46:48;;;;;;;12.10;3.92;;;24.80;99.90;;;;;;5055452;28;20186;-49
2022/05/19 07:49:14;;;;;;;6.82;4.03;;;24.90;99.90;;;;;;5054806;28;20197;-49
2022/05/19 07:51:40;;;;;;;7.15;4.35;;;24.90;99.90;;;;;;5054644;28;20167;-47
2022/05/19 07:54:09;;;;;;;8.10;3.95;;;24.80;99.90;;;;;;5054728;28;20170;-48
2022/05/19 07:56:34;;;;;;;11.48;3.75;;;24.90;99.90;;;;;;5054632;28;20186;-47
2022/05/19 07:59:01;;;;;;;7.78;4.18;;;24.80;99.90;;;;;;5054895;28;20170;-48
2022/05/19 08:01:27;;;;;;;6.90;4.22;;;24.70;99.90;;;;;;5054815;28;20174;-49
2022/05/19 08:03:53;;;;;;;5.85;3.72;;;24.80;99.90;;;;;;5054444;28;20167;-47
2022/05/19 08:06:18;;;;;;;10.75;4.20;;;25.10;99.90;;;;;;5054859;28;20179;-48
2022/05/19 08:08:44;;;;;;;5.95;3.83;;;25.20;99.90;;;;;;5054409;28;20178;-48
2022/05/19 08:11:10;;;;;;;5.88;3.88;;;25.20;99.90;;;;;;5054736;28;20196;-49
2022/05/19 08:16:21;;;;;;;8.15;3.92;;;25.30;99.90;;;;;;5054581;28;20173;-47
2022/05/19 08:18:47;;;;;;;6.00;4.05;;;25.60;99.90;;;;;;5054574;28;20546;-48
2022/05/19 08:21:13;;;;;;;9.38;5.20;;;25.60;99.90;;;;;;5054242;28;20170;-48
2022/05/19 08:23:42;;;;;;;5.57;4.00;;;25.70;99.90;;;;;;5054251;28;20666;-47
2022/05/19 08:26:08;;;;;;;5.82;3.85;;;25.80;99.90;;;;;;5054160;28;20220;-48
2022/05/19 08:28:34;;;;;;;7.53;3.80;;;25.80;99.90;;;;;;5054102;28;20166;-47
2022/05/19 08:31:03;;;;;;;9.02;4.30;;;26.00;99.90;;;;;;5054116;28;20296;-47
2022/05/19 08:33:29;;;;;;;6.50;4.47;;;26.30;99.90;;;;;;5054036;28;20158;-47
2022/05/19 08:35:55;;;;;;;9.20;4.68;;;26.40;99.90;;;;;;5053865;28;20174;-47
2022/05/19 08:38:21;;;;;;;9.15;4.65;;;26.20;99.90;;;;;;5054230;28;20206;-47
2022/05/19 08:41:05;;;;;;;9.07;4.93;;;26.20;99.90;;;;;;5054419;28;20166;-48
2022/05/19 08:43:39;;;;;;;9.50;4.80;;;26.20;99.90;;;;;;5053849;28;20166;-47
2022/05/19 08:46:06;;;;;;;9.93;4.50;;;26.20;99.90;;;;;;5053790;28;20289;-47
2022/05/19 08:48:32;;;;;;;7.38;3.97;;;26.30;99.90;;;;;;5053783;28;20170;-48
2022/05/19 08:51:01;;;;;;;5.35;4.50;;;26.50;99.90;;;;;;5053761;28;20163;-47
2022/05/19 08:53:30;;;;;;;10.20;5.50;;;26.70;99.90;;;;;;5053537;28;20261;-48
2022/05/19 08:56:23;;;;;;;12.02;5.72;;;26.80;99.90;;;;;;5052575;28;20158;-48
2022/05/19 08:59:11;;;;;;;11.88;5.15;;;26.90;99.90;;;;;;5053887;28;20174;-47
2022/05/19 09:01:49;;;;;;;10.32;5.03;;;27.10;99.90;;;;;;5053535;28;20166;-47
2022/05/19 09:04:30;;;;;;;9.63;5.22;;;26.80;99.90;;;;;;5053573;28;20268;-48
2022/05/19 09:10:11;;;;;;;12.80;4.22;;;27.10;99.90;;;;;;5053592;28;20220;-47
2022/05/19 09:12:39;;;;;;;10.35;4.38;;;27.30;99.90;;;;;;5053505;28;20256;-47
2022/05/19 09:15:08;;;;;;;7.45;4.40;;;27.30;99.90;;;;;;5053237;28;20154;-47
2022/05/19 09:17:38;;;;;;;4.68;3.70;;;27.40;99.90;;;;;;5053057;28;20217;-47
2022/05/19 09:20:09;;;;;;;9.98;4.20;;;27.50;99.90;;;;;;5053380;28;20535;-47
2022/05/19 09:22:35;;;;;;;6.05;3.97;;;27.60;99.90;;;;;;5053138;28;20201;-47
2022/05/19 09:25:16;;;;;;;5.55;3.10;;;27.80;99.90;;;;;;5053040;28;20185;-47
2022/05/19 09:27:47;;;;;;;6.15;3.47;;;27.80;99.90;;;;;;5053182;28;20174;-48
2022/05/19 09:30:36;;;;;;;8.57;3.55;;;27.70;99.90;;;;;;5052868;28;20535;-48
2022/05/19 09:33:13;;;;;;;6.53;3.40;;;27.90;99.90;;;;;;5052812;28;20631;-47
2022/05/19 09:35:43;;;;;;;5.75;3.22;;;28.00;99.90;;;;;;5052916;28;20193;-47
2022/05/19 09:38:16;;;;;;;5.05;3.45;;;27.80;99.90;;;;;;5052959;28;20267;-47
2022/05/19 09:40:46;;;;;;;5.40;3.40;;;27.80;99.90;;;;;;5052981;28;20170;-47
2022/05/19 09:43:21;;;;;;;3.38;3.05;;;28.10;99.90;;;;;;5052952;28;20174;-48
2022/05/19 09:45:49;;;;;;;8.13;3.72;;;27.70;99.90;;;;;;5052973;28;20166;-47
2022/05/19 09:48:20;;;;;;;6.63;3.63;;;28.10;99.90;;;;;;5052616;28;20307;-47
2022/05/19 09:50:46;;;;;;;7.15;3.95;;;28.20;99.90;;;;;;5052480;28;20170;-48
2022/05/19 09:53:17;;;;;;;6.50;3.80;;;28.10;99.90;;;;;;5052514;28;20238;-47
2022/05/19 09:55:43;;;;;;;4.60;3.65;;;28.10;99.90;;;;;;5052682;28;20216;-49
2022/05/19 09:58:13;;;;;;;5.50;3.50;;;28.20;99.90;;;;;;5052527;28;20605;-47
2022/05/19 10:00:57;;;;;;;8.80;4.05;;;28.50;99.90;;;;;;5052210;28;20640;-48
2022/05/19 10:03:32;;;;;;;18.42;4.68;;;28.60;99.90;;;;;;5052623;28;20181;-47
2022/05/19 10:06:04;;;;;;;8.90;3.53;;;28.50;99.90;;;;;;5050615;28;20610;-48
2022/05/19 10:08:41;;;;;;;7.40;4.05;;;28.60;99.90;;;;;;5052251;28;20163;-47
2022/05/19 10:11:13;;;;;;;9.15;4.68;;;28.60;99.90;;;;;;5052446;28;20269;-47
2022/05/19 10:13:45;;;;;;;8.77;4.00;;;28.20;99.90;;;;;;5052343;28;20170;-48
2022/05/19 10:16:20;;;;;;;6.38;3.92;;;28.00;99.90;;;;;;5052030;28;20174;-48
2022/05/19 10:19:04;;;;;;;7.60;3.60;;;28.00;99.90;;;;;;5052419;28;20174;-48
2022/05/19 10:21:37;;;;;;;5.05;3.65;;;28.10;99.90;;;;;;5052273;28;20166;-48
2022/05/19 10:24:34;;;;;;;5.68;3.63;;;28.20;99.90;;;;;;5052356;28;20200;-47
2022/05/19 10:33:22;;;;;;;7.65;3.60;;;28.80;99.90;;;;;;5051940;28;20169;-49
2022/05/19 10:36:13;;;;;;;8.10;3.50;;;29.00;99.90;;;;;;5052438;28;20174;-48
2022/05/19 10:39:16;;;;;;;5.13;3.55;;;28.90;99.90;;;;;;5051927;28;20602;-47
2022/05/19 10:42:04;;;;;;;4.43;3.55;;;29.00;99.90;;;;;;5051761;28;20170;-49
2022/05/19 10:44:51;;;;;;;3.58;3.10;;;29.40;99.90;;;;;;5051777;28;20173;-48
2022/05/19 10:47:49;;;;;;;5.20;3.50;;;29.90;99.90;;;;;;5052362;28;20651;-48
2022/05/19 10:50:33;;;;;;;4.55;3.30;;;30.10;99.90;;;;;;5051791;28;20205;-48
2022/05/19 10:53:42;;;;;;;5.70;3.25;;;30.20;99.90;;;;;;5051958;28;20174;-48
2022/05/19 10:56:30;;;;;;;6.50;3.85;;;29.90;99.90;;;;;;5051650;28;20639;-48
2022/05/19 10:59:26;;;;;;;9.55;3.35;;;29.40;99.90;;;;;;5051589;28;20647;-48
2022/05/19 11:02:13;;;;;;;7.07;3.85;;;29.50;99.90;;;;;;5051664;28;20162;-48
2022/05/19 11:04:56;;;;;;;8.40;4.13;;;29.40;99.90;;;;;;5051529;28;20244;-46
2022/05/19 11:07:37;;;;;;;8.75;3.83;;;29.70;99.90;;;;;;5051566;28;20631;-46
2022/05/19 11:10:51;;;;;;;7.28;3.92;;;29.40;99.90;;;;;;5051582;28;20708;-47
2022/05/19 11:13:29;;;;;;;7.47;3.65;;;29.90;99.90;;;;;;5049943;28;20236;-48
2022/05/19 11:16:14;;;;;;;6.25;3.33;;;30.10;99.90;;;;;;5051474;28;20193;-47
2022/05/19 11:19:23;;;;;;;4.32;3.65;;;30.20;99.90;;;;;;5052928;28;20643;-49
2022/05/19 11:22:11;;;;;;;5.82;3.40;;;29.50;99.90;;;;;;5055962;28;20214;-48
2022/05/19 11:27:40;;;;;;;6.63;3.60;;;29.80;99.90;;;;;;5055501;28;20189;-47
2022/05/19 11:30:16;;;;;;;7.25;3.28;;;30.00;99.90;;;;;;5055391;28;20577;-48
2022/05/19 11:32:42;;;;;;;6.55;3.70;;;29.90;99.90;;;;;;5055228;28;20166;-47
2022/05/19 11:35:12;;;;;;;6.00;3.60;;;29.70;99.90;;;;;;5055315;28;20182;-47
2022/05/19 11:37:50;;;;;;;4.35;3.42;;;30.10;99.90;;;;;;5055231;28;20217;-48
2022/05/19 11:40:27;;;;;;;6.65;3.53;;;30.10;99.90;;;;;;5055266;28;20293;-47
2022/05/19 11:43:10;;;;;;;5.28;3.28;;;29.90;99.90;;;;;;5054983;28;20205;-46
2022/05/19 11:45:48;;;;;;;9.15;3.75;;;30.00;99.90;;;;;;5055159;28;20202;-48
2022/05/19 11:55:19;;;;;;;4.72;3.00;;;30.30;99.90;;;;;;5055006;28;20188;-48
2022/05/19 11:58:09;;;;;;;3.90;3.50;;;30.40;99.90;;;;;;5053939;28;20651;-47
2022/05/19 12:00:49;;;;;;;5.82;3.53;;;30.90;99.90;;;;;;5054924;28;20178;-47
2022/05/19 12:03:38;;;;;;;5.63;3.25;;;31.30;99.90;;;;;;5054754;28;20533;-48
2022/05/19 12:06:10;;;;;;;7.93;3.35;;;31.30;99.90;;;;;;5054398;28;20221;-48
2022/05/19 12:08:55;;;;;;;4.28;3.40;;;31.10;99.90;;;;;;5054780;28;20244;-48
2022/05/19 12:11:23;;;;;;;4.28;3.22;;;31.10;99.90;;;;;;5054914;28;20177;-48
2022/05/19 12:14:12;;;;;;;6.40;3.60;;;30.70;99.90;;;;;;5054725;28;20177;-47
2022/05/19 12:16:51;;;;;;;6.18;3.80;;;30.90;99.90;;;;;;5054116;28;20702;-49
2022/05/19 12:19:38;;;;;;;6.45;3.63;;;30.70;99.90;;;;;;5054665;28;20170;-48
2022/05/19 12:22:10;;;;;;;4.93;3.30;;;30.50;99.90;;;;;;5054564;28;20166;-47
2022/05/19 12:24:50;;;;;;;10.10;3.67;;;30.40;99.90;;;;;;5054496;28;20174;-48
2022/05/19 12:27:18;;;;;;;6.25;3.47;;;30.80;99.90;;;;;;5054075;28;20174;-49
2022/05/19 12:30:00;;;;;;;7.32;3.63;;;31.20;99.90;;;;;;5053956;28;20162;-47
2022/05/19 12:32:35;;;;;;;5.80;3.45;;;31.50;99.90;;;;;;5053931;28;20223;-48
2022/05/19 12:35:09;;;;;;;9.05;3.30;;;31.40;99.90;;;;;;5054067;28;20165;-47
2022/05/19 12:37:39;;;;;;;6.32;2.88;;;31.20;99.90;;;;;;5054112;28;20253;-47
2022/05/19 12:40:21;;;;;;;4.88;2.92;;;30.70;99.90;;;;;;5054160;28;20162;-49
2022/05/19 12:42:48;;;;;;;5.05;3.05;;;30.70;99.90;;;;;;5054218;28;20178;-48
2022/05/19 12:45:16;;;;;;;6.80;3.40;;;30.40;99.90;;;;;;5053838;28;20173;-48
2022/05/19 12:48:44;;;;;;;8.40;2.90;;;30.70;99.90;;;;;;5053810;28;20174;-48
2022/05/19 12:51:11;;;;;;;6.82;3.53;;;30.70;99.90;;;;;;5052305;28;20235;-47
2022/05/19 12:53:52;;;;;;;6.18;3.08;;;30.50;99.90;;;;;;5053975;28;20265;-48
2022/05/19 12:56:46;;;;;;;8.05;3.35;;;30.20;99.90;;;;;;5054076;28;20170;-47
2022/05/19 12:59:27;;;;;;;5.38;3.55;;;30.30;99.90;;;;;;5053567;28;20666;-48
2022/05/19 13:02:05;;;;;;;7.85;3.38;;;30.10;99.90;;;;;;5053568;28;20639;-46
2022/05/19 13:04:59;;;;;;;4.40;3.10;;;29.80;99.90;;;;;;5053376;28;20214;-47
2022/05/19 13:07:32;;;;;;;274.98;23.20;;;29.80;99.90;;;;;;5053449;28;20167;-47
2022/05/19 13:10:16;;;;;;;363.02;31.55;;;27.70;99.90;;;;;;5053406;28;20177;-49
2022/05/19 13:12:47;;;;;;;154.57;14.98;;;26.30;99.90;;;;;;5053281;28;20170;-48
2022/05/19 13:15:31;;;;;;;63.05;7.57;;;25.60;99.90;;;;;;5053495;28;20170;-51
2022/05/19 13:18:03;;;;;;;43.40;5.95;;;24.60;99.90;;;;;;5053137;28;20229;-47
2022/05/19 13:20:38;;;;;;;32.67;5.07;;;23.90;99.90;;;;;;5053234;28;20159;-48
2022/05/19 13:23:23;;;;;;;22.73;3.15;;;23.60;99.90;;;;;;5053102;28;20170;-48
2022/05/19 13:25:51;;;;;;;17.23;3.67;;;23.10;99.90;;;;;;5053352;28;20174;-47
2022/05/19 13:31:20;;;;;;;12.00;2.50;;;22.30;99.90;;;;;;5053250;28;20543;-47
2022/05/19 13:33:49;;;;;;;8.93;3.17;;;22.00;99.90;;;;;;5053106;28;20537;-48
2022/05/19 13:36:26;;;;;;;16.80;4.15;;;22.00;99.90;;;;;;5052809;28;20209;-48